Time;durP1;ratioP1;P1;durP2;ratioP2;P2;SDS_P1;SDS_P2;PMS_P1;PMS_P2;Temp;Humidity;BMP_temperature;BMP_pressure;BME280_temperature;BME280_humidity;BME280_pressure;Samples;Min_cycle;Max_cycle;Signal;HPM_P1;HPM_P2
2022/05/19 00:01:28;;;;;;;3.38;2.03;;;;;;;29.18;30.91;97060.38;5038502;28;20020;-30
2022/05/19 00:03:53;;;;;;;3.25;1.95;;;;;;;29.19;30.84;97055.94;5059627;28;20036;-35
2022/05/19 00:06:19;;;;;;;3.15;1.92;;;;;;;29.17;30.66;97053.41;5060816;28;20487;-30
2022/05/19 00:08:44;;;;;;;3.78;2.00;;;;;;;29.19;30.71;97066.50;5055864;28;20032;-33
2022/05/19 00:11:12;;;;;;;3.70;1.90;;;;;;;29.18;30.68;97052.44;5058370;28;20043;-29
2022/05/19 00:13:37;;;;;;;3.78;1.90;;;;;;;29.18;30.86;97060.38;5059193;28;20025;-31
2022/05/19 00:16:05;;;;;;;3.13;1.83;;;;;;;29.17;30.66;97053.41;5060810;28;20017;-30
2022/05/19 00:18:30;;;;;;;2.75;1.80;;;;;;;29.19;30.96;97051.53;5062091;28;20039;-32
2022/05/19 00:20:56;;;;;;;2.17;1.85;;;;;;;29.19;31.28;97055.94;5056365;28;20137;-33
2022/05/19 00:23:21;;;;;;;2.78;2.10;;;;;;;29.19;30.83;97054.16;5060306;28;20036;-32
2022/05/19 00:25:47;;;;;;;4.32;2.00;;;;;;;29.18;30.87;97049.81;5057530;28;20032;-31
2022/05/19 00:28:13;;;;;;;3.72;1.58;;;;;;;29.19;30.69;97045.38;5062211;28;20051;-30
2022/05/19 00:30:38;;;;;;;4.60;1.70;;;;;;;29.19;30.98;97046.25;5063719;28;20451;-30
2022/05/19 00:33:03;;;;;;;3.35;2.08;;;;;;;29.17;31.00;97042.84;5058255;28;20025;-31
2022/05/19 00:35:29;;;;;;;3.75;2.20;;;;;;;29.18;30.57;97041.88;5057183;28;20119;-31
2022/05/19 00:37:54;;;;;;;3.58;2.00;;;;;;;29.17;30.77;97031.44;5057150;28;20360;-29
2022/05/19 00:40:21;;;;;;;6.07;1.77;;;;;;;29.17;30.71;97032.28;5057019;28;20029;-30
2022/05/19 00:42:46;;;;;;;2.58;1.98;;;;;;;29.17;30.74;97029.66;5058714;28;20024;-29
2022/05/19 00:45:17;;;;;;;3.83;1.70;;;;;;;29.18;30.75;97031.34;5051294;28;20122;-31
2022/05/19 00:47:50;;;;;;;2.53;1.60;;;;;;;29.17;30.95;97024.38;5050958;28;20073;-30
2022/05/19 00:50:41;;;;;;;4.65;1.90;;;;;;;29.17;30.76;97027.00;5044312;28;20035;-30
2022/05/19 00:53:09;;;;;;;7.90;1.90;;;;;;;29.18;30.81;97027.88;5060970;28;20036;-29
2022/05/19 00:55:37;;;;;;;2.70;1.70;;;;;;;29.18;30.86;97025.22;5074511;28;20815;-30
2022/05/19 00:58:10;;;;;;;2.80;1.67;;;;;;;29.17;30.95;97027.00;5038270;28;20727;-32
2022/05/19 01:00:35;;;;;;;2.67;1.90;;;;;;;29.18;30.84;97019.94;5052703;28;20028;-35
2022/05/19 01:03:01;;;;;;;4.88;1.92;;;;;;;29.17;30.86;97021.72;5051563;28;21794;-31
2022/05/19 01:05:36;;;;;;;5.85;1.75;;;;;;;29.17;30.68;97016.44;5051115;28;20060;-30
2022/05/19 01:08:12;;;;;;;4.07;2.03;;;;;;;29.17;30.39;97015.59;5058284;28;20039;-31
2022/05/19 01:10:37;;;;;;;4.00;1.83;;;;;;;29.16;30.56;97019.19;5053240;28;20042;-30
2022/05/19 01:13:04;;;;;;;2.08;1.70;;;;;;;29.15;30.73;97015.72;5058619;28;20024;-32
2022/05/19 01:15:29;;;;;;;3.22;1.85;;;;;;;29.14;30.69;97021.91;5056677;28;20020;-29
2022/05/19 01:17:54;;;;;;;3.03;1.80;;;;;;;29.12;30.50;97008.00;5040989;28;20036;-32
2022/05/19 01:20:23;;;;;;;4.43;1.85;;;;;;;29.13;30.73;97012.31;5055506;28;20123;-32
2022/05/19 01:22:55;;;;;;;2.00;1.50;;;;;;;29.13;30.61;97012.31;5058889;28;20036;-31
2022/05/19 01:25:43;;;;;;;4.82;1.60;;;;;;;29.14;30.62;97011.38;5058075;28;20028;-30
2022/05/19 01:28:09;;;;;;;3.85;1.70;;;;;;;29.14;30.78;97011.38;5060554;28;20081;-34
2022/05/19 01:30:34;;;;;;;3.22;1.73;;;;;;;29.14;30.49;97010.53;5057869;28;20036;-31
2022/05/19 01:33:00;;;;;;;3.28;1.60;;;;;;;29.14;30.57;97006.09;5051214;28;20608;-30
2022/05/19 01:35:26;;;;;;;3.65;1.48;;;;;;;29.14;30.81;97008.72;5058362;28;20571;-33
2022/05/19 01:37:51;;;;;;;2.80;1.60;;;;;;;29.15;30.75;97007.81;5054314;28;20068;-28
2022/05/19 01:40:49;;;;;;;3.25;2.00;;;;;;;29.15;30.66;97002.53;5056738;28;20055;-30
2022/05/19 01:43:31;;;;;;;2.67;1.73;;;;;;;29.14;30.52;97002.63;5057472;28;20521;-32
2022/05/19 01:46:15;;;;;;;;;;;;;;;29.14;30.83;97003.44;5055664;28;20538;-31
2022/05/19 01:49:00;;;;;;;3.45;1.80;;;;;;;29.14;30.57;97006.09;5059525;28;19920;-29
2022/05/19 01:51:34;;;;;;;5.00;1.90;;;;;;;29.15;30.55;97004.31;5051637;28;20119;-29
2022/05/19 01:54:13;;;;;;;6.25;1.70;;;;;;;29.14;30.75;97011.38;5061132;28;20032;-32
2022/05/19 01:56:43;;;;;;;3.25;1.65;;;;;;;29.13;30.77;97008.84;5058952;28;20032;-31
2022/05/19 01:59:17;;;;;;;4.20;1.90;;;;;;;29.13;30.48;97000.94;5056078;28;20036;-31
2022/05/19 02:01:51;;;;;;;2.53;1.50;;;;;;;29.12;30.75;97002.72;5058291;28;20028;-30
2022/05/19 02:04:23;;;;;;;3.95;1.70;;;;;;;29.12;30.71;96997.44;5075123;28;20033;-30
2022/05/19 02:06:54;;;;;;;2.42;1.80;;;;;;;29.13;30.51;97003.56;5060506;28;20035;-30
2022/05/19 02:09:24;;;;;;;2.90;1.60;;;;;;;29.12;30.73;97002.72;5060272;28;20413;-34
2022/05/19 02:11:54;;;;;;;4.43;1.73;;;;;;;29.12;30.42;97002.72;5056035;28;20043;-29
2022/05/19 02:14:28;;;;;;;1.73;1.50;;;;;;;29.12;30.59;97000.06;5057515;28;20032;-36
2022/05/19 02:16:53;;;;;;;2.88;1.45;;;;;;;29.11;30.57;97006.31;5054709;28;20044;-34
2022/05/19 02:19:21;;;;;;;2.72;1.73;;;;;;;29.10;30.76;97009.88;5052108;28;20024;-30
2022/05/19 02:21:47;;;;;;;2.92;1.70;;;;;;;29.11;30.38;97008.06;5043032;28;20418;-30
2022/05/19 02:24:13;;;;;;;2.72;1.80;;;;;;;29.11;30.38;97005.44;5059949;28;20032;-30
2022/05/19 02:26:39;;;;;;;2.53;1.80;;;;;;;29.11;30.34;97008.94;5060334;28;20100;-32
2022/05/19 02:29:09;;;;;;;3.78;2.00;;;;;;;29.10;30.37;97009.88;5060296;28;20023;-32
2022/05/19 02:31:35;;;;;;;2.93;1.57;;;;;;;29.09;30.17;97002.91;5043467;28;20031;-31
2022/05/19 02:34:00;;;;;;;2.40;1.80;;;;;;;29.11;30.29;97003.66;5061963;28;20147;-30
2022/05/19 02:36:25;;;;;;;4.93;1.90;;;;;;;29.10;30.57;97003.75;5058951;28;20115;-32
2022/05/19 02:38:51;;;;;;;2.92;1.80;;;;;;;29.08;30.37;96996.78;5059405;28;20533;-29
2022/05/19 02:41:16;;;;;;;2.42;1.80;;;;;;;29.10;30.52;96999.31;5057285;28;20090;-31
2022/05/19 02:43:42;;;;;;;2.25;1.67;;;;;;;29.08;30.54;96998.56;5057595;28;20063;-31
2022/05/19 02:46:07;;;;;;;1.67;1.48;;;;;;;29.08;30.46;96996.78;5055863;28;20028;-29
2022/05/19 02:48:32;;;;;;;3.28;2.00;;;;;;;29.07;30.29;96992.44;5058748;28;20033;-31
2022/05/19 02:50:59;;;;;;;2.20;1.50;;;;;;;29.08;30.46;96995.94;5057526;28;20024;-30
2022/05/19 02:53:24;;;;;;;3.72;1.75;;;;;;;29.10;30.25;97004.59;5056015;28;20066;-29
2022/05/19 02:55:50;;;;;;;2.30;1.40;;;;;;;29.09;30.18;97010.81;5060509;28;22183;-31
2022/05/19 02:58:15;;;;;;;2.42;1.50;;;;;;;29.08;30.24;97011.75;5053444;28;20105;-33
2022/05/19 03:00:42;;;;;;;2.53;1.55;;;;;;;29.08;30.55;97011.75;5049386;28;20024;-30
2022/05/19 03:03:08;;;;;;;2.08;1.80;;;;;;;29.08;30.21;97006.50;5059830;28;20119;-33
2022/05/19 03:05:33;;;;;;;2.10;1.42;;;;;;;29.07;30.18;97007.44;5059604;28;20036;-29
2022/05/19 03:07:59;;;;;;;3.30;1.67;;;;;;;29.07;30.09;97002.16;5057898;28;20040;-31
2022/05/19 03:10:24;;;;;;;3.30;1.92;;;;;;;29.07;30.40;97000.34;5058539;28;20028;-34
2022/05/19 03:12:50;;;;;;;4.68;1.92;;;;;;;29.07;30.43;96999.53;5055907;28;20032;-30
2022/05/19 03:15:15;;;;;;;2.92;1.80;;;;;;;29.07;30.07;97002.16;5059122;28;20101;-30
2022/05/19 03:17:41;;;;;;;1.95;1.60;;;;;;;29.06;30.23;96992.56;5059359;28;20031;-29
2022/05/19 03:20:07;;;;;;;1.95;1.50;;;;;;;29.05;30.14;96990.84;5050496;28;20032;-36
2022/05/19 03:22:33;;;;;;;3.65;1.50;;;;;;;29.05;30.18;96990.84;5052664;28;20045;-31
2022/05/19 03:24:58;;;;;;;5.07;1.70;;;;;;;29.04;30.02;96989.16;5059876;28;20442;-29
2022/05/19 03:27:23;;;;;;;2.22;1.70;;;;;;;29.05;30.08;96990.84;5057061;28;20033;-29
2022/05/19 03:29:49;;;;;;;2.42;1.70;;;;;;;29.04;30.05;96983.88;5060502;28;20043;-31
2022/05/19 03:32:15;;;;;;;1.90;1.70;;;;;;;29.03;30.09;96983.03;5061737;28;20076;-29
2022/05/19 03:34:40;;;;;;;3.15;1.70;;;;;;;29.03;30.35;96983.03;5060163;28;20095;-32
2022/05/19 03:37:06;;;;;;;3.38;1.80;;;;;;;29.03;30.03;96982.19;5064856;28;20032;-29
2022/05/19 03:39:32;;;;;;;3.53;1.67;;;;;;;29.03;29.99;96993.56;5061915;28;20735;-30
2022/05/19 03:41:57;;;;;;;2.08;1.67;;;;;;;29.03;30.11;96992.75;5060754;28;20067;-29
2022/05/19 03:44:22;;;;;;;4.47;1.80;;;;;;;29.03;30.23;96988.28;5060347;28;20024;-29
2022/05/19 03:46:48;;;;;;;5.07;1.92;;;;;;;29.03;29.96;96982.19;5061847;28;20942;-29
2022/05/19 03:49:13;;;;;;;4.35;1.88;;;;;;;29.01;30.05;96984.91;5060619;28;20094;-31
2022/05/19 03:51:39;;;;;;;3.83;1.98;;;;;;;29.02;30.02;96985.78;5061724;28;20023;-31
2022/05/19 03:54:05;;;;;;;2.60;1.67;;;;;;;29.01;29.97;96978.78;5056932;28;20031;-30
2022/05/19 03:56:30;;;;;;;3.03;1.75;;;;;;;29.01;29.86;96989.34;5063732;28;20028;-32
2022/05/19 03:58:55;;;;;;;2.83;1.83;;;;;;;29.01;30.26;96997.25;5064212;28;20028;-35
2022/05/19 04:01:21;;;;;;;1.77;1.45;;;;;;;29.00;30.12;96992.94;5055284;28;20035;-32
2022/05/19 04:03:47;;;;;;;4.35;1.80;;;;;;;29.01;29.92;97002.53;5062555;28;20486;-32
2022/05/19 04:06:12;;;;;;;2.80;1.73;;;;;;;29.00;30.14;97008.75;5058834;28;20573;-30
2022/05/19 04:08:37;;;;;;;3.90;1.70;;;;;;;28.98;29.93;97000.94;5059818;28;20075;-30
2022/05/19 04:11:03;;;;;;;2.60;2.00;;;;;;;28.97;29.74;96999.25;5063723;28;20517;-32
2022/05/19 04:13:28;;;;;;;3.65;2.05;;;;;;;28.98;29.74;97005.38;5060833;28;20033;-30
2022/05/19 04:15:54;;;;;;;3.78;1.88;;;;;;;28.96;29.71;97008.13;5059597;28;20032;-31
2022/05/19 04:18:19;;;;;;;7.00;1.80;;;;;;;28.95;29.64;97006.44;5060766;28;20039;-30
2022/05/19 04:20:45;;;;;;;3.17;1.90;;;;;;;28.95;29.76;97009.91;5059302;28;20029;-31
2022/05/19 04:23:10;;;;;;;1.95;1.50;;;;;;;28.94;29.89;97005.56;5065090;28;20805;-29
2022/05/19 04:25:36;;;;;;;4.00;1.80;;;;;;;28.93;29.92;97001.25;5058093;28;20047;-30
2022/05/19 04:28:02;;;;;;;2.35;1.55;;;;;;;28.93;29.66;97001.25;5054948;28;20024;-31
2022/05/19 04:30:27;;;;;;;2.72;1.80;;;;;;;28.92;29.81;97010.06;5058907;28;20092;-29
2022/05/19 04:32:53;;;;;;;3.17;1.80;;;;;;;28.92;29.77;97011.88;5060098;28;20032;-33
2022/05/19 04:35:18;;;;;;;2.05;1.50;;;;;;;28.90;30.14;97006.72;5061726;28;20043;-29
2022/05/19 04:37:44;;;;;;;2.42;1.65;;;;;;;28.89;29.89;97005.00;5059309;28;20039;-29
2022/05/19 04:40:09;;;;;;;2.70;1.85;;;;;;;28.89;29.90;97006.75;5058087;28;20876;-30
2022/05/19 04:42:35;;;;;;;2.40;1.75;;;;;;;28.89;29.48;97007.66;5057866;28;20056;-29
2022/05/19 04:45:00;;;;;;;2.40;1.80;;;;;;;28.88;29.75;97005.06;5059717;28;20036;-31
2022/05/19 04:47:26;;;;;;;5.32;2.10;;;;;;;28.87;29.86;97006.03;5060261;28;20108;-30
2022/05/19 04:49:51;;;;;;;2.33;1.70;;;;;;;28.86;29.94;97023.63;5059054;28;20020;-31
2022/05/19 04:52:16;;;;;;;3.78;1.75;;;;;;;28.85;29.72;97014.03;5058633;28;20040;-30
2022/05/19 04:54:42;;;;;;;3.17;1.63;;;;;;;28.86;29.79;97026.28;5057637;28;20139;-31
2022/05/19 04:57:07;;;;;;;6.35;1.85;;;;;;;28.86;29.90;97028.91;5060086;28;20033;-29
2022/05/19 04:59:39;;;;;;;1.52;1.40;;;;;;;28.84;30.01;97028.16;5056902;28;20063;-30
2022/05/19 05:02:05;;;;;;;5.00;1.77;;;;;;;28.86;30.03;97034.19;5057138;28;20020;-30
2022/05/19 05:04:30;;;;;;;4.72;1.70;;;;;;;28.85;29.71;97040.41;5058468;28;20608;-32
2022/05/19 05:06:56;;;;;;;2.28;1.60;;;;;;;28.85;30.02;97048.31;5061920;28;20044;-30
2022/05/19 05:09:21;;;;;;;5.47;1.42;;;;;;;28.85;29.89;97050.97;5058734;28;20542;-31
2022/05/19 05:11:47;;;;;;;4.75;1.90;;;;;;;28.85;29.76;97044.81;5060652;28;20146;-38
2022/05/19 05:14:13;;;;;;;4.35;1.80;;;;;;;28.85;29.85;97050.09;5060768;28;20021;-30
2022/05/19 05:16:39;;;;;;;3.10;1.90;;;;;;;28.85;29.75;97036.91;5059456;28;20028;-32
2022/05/19 05:19:04;;;;;;;4.85;1.90;;;;;;;28.83;29.88;97037.88;5054975;28;20054;-32
2022/05/19 05:21:30;;;;;;;5.57;2.20;;;;;;;28.84;29.86;97038.72;5060537;28;20443;-30
2022/05/19 05:23:55;;;;;;;7.68;2.08;;;;;;;28.82;29.94;97032.69;5062779;28;20038;-31
2022/05/19 05:26:21;;;;;;;6.28;1.92;;;;;;;28.82;29.71;97035.31;5063731;28;20606;-30
2022/05/19 05:28:46;;;;;;;3.67;1.88;;;;;;;28.81;30.08;97036.25;5061103;28;20139;-29
2022/05/19 05:31:12;;;;;;;4.97;1.83;;;;;;;28.81;29.72;97034.47;5059617;28;20028;-32
2022/05/19 05:33:37;;;;;;;3.72;2.08;;;;;;;28.81;29.64;97042.41;5054894;28;20016;-32
2022/05/19 05:36:02;;;;;;;3.83;2.05;;;;;;;28.80;29.72;97045.94;5061582;28;20027;-30
2022/05/19 05:38:28;;;;;;;3.92;2.10;;;;;;;28.81;29.68;97042.41;5060279;28;20024;-30
2022/05/19 05:40:53;;;;;;;5.70;2.22;;;;;;;28.81;29.75;97041.53;5059629;28;20028;-31
2022/05/19 05:43:19;;;;;;;4.03;2.15;;;;;;;28.80;29.65;97031.94;5058746;28;20028;-36
2022/05/19 05:45:46;;;;;;;3.10;2.13;;;;;;;28.81;29.75;97036.25;5059858;28;21087;-30
2022/05/19 05:48:11;;;;;;;5.15;2.10;;;;;;;28.81;29.68;97037.13;5062483;28;20032;-30
2022/05/19 05:50:37;;;;;;;6.82;2.25;;;;;;;28.80;29.74;97040.69;5062002;28;20169;-30
2022/05/19 05:53:03;;;;;;;8.13;2.13;;;;;;;28.82;29.76;97045.88;5060271;28;20036;-30
2022/05/19 05:55:29;;;;;;;3.17;2.03;;;;;;;28.83;29.88;97039.63;5058919;28;20565;-30
2022/05/19 05:57:54;;;;;;;4.95;2.17;;;;;;;28.82;29.91;97044.09;5059969;28;20037;-30
2022/05/19 06:00:20;;;;;;;3.83;1.80;;;;;;;28.84;29.65;97041.34;5056528;28;20040;-31
2022/05/19 06:02:45;;;;;;;4.60;2.30;;;;;;;28.85;29.74;97042.19;5061407;28;20024;-30
2022/05/19 06:05:12;;;;;;;6.55;2.15;;;;;;;28.85;29.86;97056.22;5059669;28;20028;-29
2022/05/19 06:07:37;;;;;;;5.35;2.20;;;;;;;28.86;29.65;97057.91;5060107;28;20028;-30
2022/05/19 06:10:03;;;;;;;5.32;1.98;;;;;;;28.86;29.80;97044.72;5057984;28;20020;-31
2022/05/19 06:12:29;;;;;;;4.05;2.05;;;;;;;28.87;29.91;97049.06;5059260;28;20417;-31
2022/05/19 06:14:56;;;;;;;3.20;2.00;;;;;;;28.88;29.86;97048.13;5061210;28;20036;-31
2022/05/19 06:17:22;;;;;;;4.35;1.90;;;;;;;28.90;29.66;97046.28;5056621;28;20138;-31
2022/05/19 06:19:47;;;;;;;2.28;1.65;;;;;;;28.91;29.85;97044.50;5054339;28;20602;-30
2022/05/19 06:22:13;;;;;;;8.88;2.33;;;;;;;28.92;29.77;97043.53;5055908;28;20066;-34
2022/05/19 06:24:38;;;;;;;9.35;2.40;;;;;;;28.94;29.96;97041.66;5057266;28;20036;-30
2022/05/19 06:27:04;;;;;;;14.20;3.33;;;;;;;28.95;29.83;97044.19;5056939;28;20047;-31
2022/05/19 06:29:29;;;;;;;11.07;2.95;;;;;;;28.96;29.86;97042.41;5059553;28;20119;-29
2022/05/19 06:31:54;;;;;;;10.32;3.35;;;;;;;28.97;29.86;97045.88;5061662;28;20125;-34
2022/05/19 06:34:20;;;;;;;9.77;2.60;;;;;;;28.98;29.77;97037.03;5060512;28;20039;-30
2022/05/19 06:36:46;;;;;;;7.15;2.40;;;;;;;28.99;29.88;97033.47;5055884;28;20035;-31
2022/05/19 06:39:11;;;;;;;8.95;3.30;;;;;;;28.99;29.83;97041.38;5055760;28;20978;-36
2022/05/19 06:44:41;;;;;;;7.68;2.65;;;;;;;28.99;30.05;97044.00;5025471;28;20930;-30
2022/05/19 06:47:13;;;;;;;13.82;2.50;;;;;;;28.97;30.08;97043.25;5031200;28;20312;-32
2022/05/19 06:49:42;;;;;;;12.68;2.85;;;;;;;28.93;30.08;97043.44;5044026;28;20101;-32
2022/05/19 06:52:10;;;;;;;5.30;2.45;;;;;;;28.90;30.09;97051.53;5054323;28;20031;-29
2022/05/19 06:54:36;;;;;;;10.77;2.83;;;;;;;28.88;30.12;97056.06;5055313;28;20036;-33
2022/05/19 06:57:01;;;;;;;7.13;2.33;;;;;;;28.85;30.10;97056.22;5058484;28;20051;-31
2022/05/19 06:59:27;;;;;;;8.15;2.85;;;;;;;28.82;30.05;97064.31;5056410;28;20486;-34
2022/05/19 07:01:52;;;;;;;4.20;2.30;;;;;;;28.80;30.13;97072.31;5055202;28;20093;-31
2022/05/19 07:04:17;;;;;;;10.48;2.33;;;;;;;28.76;30.10;97059.44;5056271;28;21394;-33
2022/05/19 07:06:43;;;;;;;4.88;2.30;;;;;;;28.74;30.12;97059.53;5057272;28;20085;-30
2022/05/19 07:09:08;;;;;;;4.05;2.50;;;;;;;28.72;29.89;97052.66;5059337;28;20089;-31
2022/05/19 07:11:34;;;;;;;5.53;2.90;;;;;;;28.70;29.88;97063.28;5057652;28;20028;-29
2022/05/19 07:14:02;;;;;;;6.43;2.50;;;;;;;28.69;30.01;97051.06;5063481;28;20024;-30
2022/05/19 07:16:28;;;;;;;3.83;2.28;;;;;;;28.68;29.88;97052.84;5059070;28;20070;-30
2022/05/19 07:21:43;;;;;;;3.42;2.47;;;;;;;28.66;29.94;97061.78;5033051;28;20054;-30
2022/05/19 07:24:14;;;;;;;5.03;2.40;;;;;;;28.64;30.26;97061.03;5064337;28;20577;-31
2022/05/19 07:26:41;;;;;;;6.80;2.42;;;;;;;28.63;30.31;97060.19;5058220;28;20032;-31
2022/05/19 07:29:06;;;;;;;8.88;2.67;;;;;;;28.62;30.09;97058.50;5058330;28;20041;-30
2022/05/19 07:31:32;;;;;;;5.30;2.33;;;;;;;28.61;30.36;97064.72;5057069;28;20032;-32
2022/05/19 07:33:57;;;;;;;4.95;2.22;;;;;;;28.61;29.83;97058.59;5059238;28;20039;-32
2022/05/19 07:36:23;;;;;;;6.88;2.45;;;;;;;28.60;30.08;97063.00;5062756;28;20024;-31
2022/05/19 07:38:48;;;;;;;4.72;2.20;;;;;;;28.60;30.16;97059.53;5064258;28;20106;-33
2022/05/19 07:41:14;;;;;;;5.13;2.25;;;;;;;28.60;30.22;97062.16;5060434;28;20121;-32
2022/05/19 07:43:41;;;;;;;4.13;2.45;;;;;;;28.61;30.18;97059.44;5056514;28;20904;-32
2022/05/19 07:46:07;;;;;;;4.80;2.20;;;;;;;28.59;30.24;97063.94;5056182;28;20031;-31
2022/05/19 07:48:33;;;;;;;3.88;2.13;;;;;;;28.59;30.21;97058.66;5056717;28;20044;-31
2022/05/19 07:50:58;;;;;;;4.85;2.30;;;;;;;28.59;30.21;97057.81;5065304;28;20036;-36
2022/05/19 07:53:24;;;;;;;4.72;2.45;;;;;;;28.60;30.15;97054.25;5059339;28;20040;-30
2022/05/19 07:55:49;;;;;;;6.80;2.58;;;;;;;28.60;30.21;97057.72;5063302;28;20039;-30
2022/05/19 07:58:14;;;;;;;5.53;2.30;;;;;;;28.60;30.51;97057.72;5056447;28;20032;-32
2022/05/19 08:00:40;;;;;;;6.10;2.50;;;;;;;28.60;30.25;97052.44;5061412;28;20032;-31
2022/05/19 08:03:06;;;;;;;7.88;2.58;;;;;;;28.61;30.38;97054.16;5062018;28;20037;-31
2022/05/19 08:05:32;;;;;;;6.68;2.50;;;;;;;28.61;30.49;97051.53;5059350;28;20047;-31
2022/05/19 08:07:57;;;;;;;5.68;2.33;;;;;;;28.62;30.48;97057.63;5059393;28;20040;-31
2022/05/19 08:10:25;;;;;;;8.73;2.53;;;;;;;28.63;30.56;97054.06;5048311;28;20032;-29
2022/05/19 08:15:39;;;;;;;3.45;2.30;;;;;;;28.64;30.66;97056.59;5053981;28;20035;-30
2022/05/19 08:18:07;;;;;;;10.13;3.13;;;;;;;28.64;30.79;97059.22;5057282;28;20086;-30
2022/05/19 08:20:33;;;;;;;7.50;2.78;;;;;;;28.66;31.23;97059.16;5058052;28;20352;-30
2022/05/19 08:22:58;;;;;;;4.90;2.42;;;;;;;28.66;31.17;97054.72;5056626;28;20039;-31
2022/05/19 08:25:27;;;;;;;7.57;2.70;;;;;;;28.69;31.10;97057.16;5059567;28;20032;-30
2022/05/19 08:27:54;;;;;;;7.57;2.35;;;;;;;28.71;31.28;97053.59;5062333;28;20039;-37
2022/05/19 08:30:19;;;;;;;7.43;2.65;;;;;;;28.72;31.18;97057.94;5060546;28;22145;-30
2022/05/19 08:32:45;;;;;;;5.30;2.22;;;;;;;28.74;31.17;97051.63;5058435;28;20047;-32
2022/05/19 08:35:10;;;;;;;19.35;3.13;;;;;;;28.78;31.20;97052.25;5054471;28;20276;-30
2022/05/19 08:37:36;;;;;;;9.90;2.83;;;;;;;28.77;31.05;97045.31;5062305;28;20059;-31
2022/05/19 08:40:02;;;;;;;5.65;2.47;;;;;;;28.80;31.06;97045.13;5062809;28;20054;-30
2022/05/19 08:42:28;;;;;;;7.22;2.58;;;;;;;28.83;31.16;97044.91;5063583;28;20395;-30
2022/05/19 08:44:54;;;;;;;5.90;2.35;;;;;;;28.85;30.98;97043.03;5062537;28;22196;-32
2022/05/19 08:47:23;;;;;;;8.30;2.42;;;;;;;28.87;30.85;97043.78;5037524;28;20059;-30
2022/05/19 08:50:01;;;;;;;6.03;2.33;;;;;;;28.88;30.96;97037.59;5044036;28;20028;-31
2022/05/19 08:52:32;;;;;;;11.10;2.65;;;;;;;28.91;31.28;97034.78;5057620;28;20995;-32
2022/05/19 08:54:57;;;;;;;3.53;2.30;;;;;;;28.93;31.13;97032.91;5061562;28;20034;-30
2022/05/19 08:57:23;;;;;;;5.68;2.75;;;;;;;28.94;31.18;97036.38;5057748;28;20958;-30
2022/05/19 09:00:04;;;;;;;13.00;3.72;;;;;;;28.95;31.14;97028.34;5063088;28;20804;-33
2022/05/19 09:02:56;;;;;;;7.57;3.13;;;;;;;28.98;31.36;97031.75;5062693;28;20032;-30
2022/05/19 09:05:39;;;;;;;11.10;4.28;;;;;;;29.01;31.41;97031.56;5064678;28;20016;-31
2022/05/19 09:08:10;;;;;;;18.02;5.40;;;;;;;29.01;31.19;97026.28;5065036;28;20067;-32
2022/05/19 09:10:54;;;;;;;20.38;5.32;;;;;;;29.02;31.32;97033.28;5063844;28;20055;-34
2022/05/19 09:13:26;;;;;;;13.80;5.40;;;;;;;29.03;31.50;97029.69;5064399;28;20039;-31
2022/05/19 09:15:52;;;;;;;;;;;;;;;29.04;31.48;97028.72;5065781;28;21250;-33
2022/05/19 09:18:20;;;;;;;18.35;5.85;;;;;;;29.05;31.61;97033.91;5061119;28;19920;-30
2022/05/19 09:20:50;;;;;;;15.93;5.85;;;;;;;29.04;31.13;97034.88;5059259;28;20497;-30
2022/05/19 09:23:16;;;;;;;18.95;6.30;;;;;;;29.06;31.59;97034.78;5047184;28;20039;-31
2022/05/19 09:25:44;;;;;;;13.55;6.10;;;;;;;29.07;31.38;97031.19;5064820;28;20032;-32
2022/05/19 09:28:12;;;;;;;18.48;5.65;;;;;;;29.08;31.22;97032.88;5044811;28;20032;-33
2022/05/19 09:30:40;;;;;;;20.73;6.05;;;;;;;29.09;31.16;97034.56;5062918;28;20058;-32
2022/05/19 09:33:17;;;;;;;12.15;5.35;;;;;;;29.11;31.14;97043.25;5062930;28;20051;-32
2022/05/19 09:35:47;;;;;;;16.25;5.97;;;;;;;29.11;31.32;97040.59;5062659;28;20024;-31
2022/05/19 09:38:35;;;;;;;12.07;5.13;;;;;;;29.13;31.08;97040.50;5063164;28;20029;-31
2022/05/19 09:41:16;;;;;;;17.20;5.40;;;;;;;29.13;31.44;97033.41;5063930;28;20123;-30
2022/05/19 09:43:41;;;;;;;17.13;5.15;;;;;;;29.15;31.75;97039.47;5049578;28;20142;-32
2022/05/19 09:46:14;;;;;;;12.13;4.43;;;;;;;29.15;31.42;97043.88;5045702;28;20085;-31
2022/05/19 09:49:03;;;;;;;13.68;5.35;;;;;;;29.15;31.62;97038.59;5059812;28;20028;-29
2022/05/19 09:51:39;;;;;;;13.32;5.40;;;;;;;29.18;31.60;97041.06;5063074;28;20117;-30
2022/05/19 09:54:04;;;;;;;15.45;4.90;;;;;;;29.16;31.59;97033.25;5063119;28;20802;-34
2022/05/19 09:56:38;;;;;;;15.13;5.40;;;;;;;29.18;31.63;97033.97;5061003;28;20028;-32
2022/05/19 09:59:32;;;;;;;11.82;4.85;;;;;;;29.19;31.50;97032.19;5056757;28;20114;-32
2022/05/19 10:02:15;;;;;;;10.25;4.63;;;;;;;29.20;31.60;97026.81;5058053;28;20059;-30
2022/05/19 10:04:49;;;;;;;15.88;4.60;;;;;;;29.21;31.63;97027.66;5063672;28;20036;-31
2022/05/19 10:07:23;;;;;;;10.55;4.50;;;;;;;29.22;31.34;97029.38;5058912;28;20038;-30
2022/05/19 10:09:49;;;;;;;11.00;4.45;;;;;;;29.23;31.38;97024.91;5062551;28;20020;-36
2022/05/19 10:12:29;;;;;;;12.07;4.35;;;;;;;29.24;31.64;97023.97;5065846;28;20137;-30
2022/05/19 10:15:00;;;;;;;11.38;4.30;;;;;;;29.25;31.54;97015.13;5062130;28;20028;-33
2022/05/19 10:18:00;;;;;;;11.07;4.30;;;;;;;29.25;31.30;97012.50;5061407;28;20668;-30
2022/05/19 10:20:30;;;;;;;12.73;5.07;;;;;;;29.27;31.41;97007.94;5061678;28;20052;-31
2022/05/19 10:23:20;;;;;;;11.48;4.05;;;;;;;29.26;31.56;97003.63;5063013;28;20705;-31
2022/05/19 10:25:45;;;;;;;11.35;4.30;;;;;;;29.27;31.80;96995.59;5063296;28;20326;-29
2022/05/19 10:31:39;;;;;;;10.77;3.83;;;;;;;29.29;31.57;96992.88;5062724;28;20120;-32
2022/05/19 10:34:08;;;;;;;13.52;4.18;;;;;;;29.28;31.77;96993.78;5062474;28;20040;-30
2022/05/19 10:36:36;;;;;;;7.35;3.80;;;;;;;29.28;31.64;96988.50;5063213;28;20036;-34
2022/05/19 10:39:24;;;;;;;7.85;3.55;;;;;;;29.29;31.74;96988.41;5058947;28;20032;-31
2022/05/19 10:41:57;;;;;;;7.20;3.33;;;;;;;29.30;31.67;96984.00;5065919;28;20842;-35
2022/05/19 10:44:51;;;;;;;9.40;3.85;;;;;;;29.30;31.64;96984.00;5061496;28;20020;-31
2022/05/19 10:47:29;;;;;;;7.22;3.20;;;;;;;29.31;31.65;96993.59;5062262;28;20782;-33
2022/05/19 10:50:15;;;;;;;8.35;3.45;;;;;;;29.30;31.57;96984.81;5062038;28;20831;-33
2022/05/19 10:52:44;;;;;;;6.40;2.95;;;;;;;29.31;31.70;96980.41;5063533;28;20505;-32
2022/05/19 10:55:17;;;;;;;12.93;3.72;;;;;;;29.31;31.56;96980.41;5061201;28;20028;-32
2022/05/19 10:57:48;;;;;;;6.90;3.33;;;;;;;29.34;31.39;96980.22;5056752;28;20021;-33
2022/05/19 11:00:15;;;;;;;;;;;;;;;29.34;31.39;96974.94;5059219;28;20032;-30
2022/05/19 11:03:02;;;;;;;7.85;3.63;;;;;;;29.35;31.75;96971.34;5062251;28;19920;-31
2022/05/19 11:05:39;;;;;;;8.90;3.33;;;;;;;29.36;31.51;96973.03;5062738;28;20028;-31
2022/05/19 11:08:44;;;;;;;9.65;3.50;;;;;;;29.34;31.80;96970.50;5061868;28;20040;-31
2022/05/19 11:11:18;;;;;;;5.63;3.00;;;;;;;29.37;31.65;96969.44;4997909;28;20051;-33
2022/05/19 11:14:07;;;;;;;9.77;3.20;;;;;;;29.36;31.80;96961.66;5062705;28;20087;-31
2022/05/19 11:16:51;;;;;;;7.18;3.08;;;;;;;29.37;31.66;96956.25;5062625;28;20095;-32
2022/05/19 11:19:39;;;;;;;5.10;2.85;;;;;;;29.37;31.71;96953.59;5062543;28;20036;-34
2022/05/19 11:22:08;;;;;;;8.13;3.08;;;;;;;29.38;31.70;96955.31;5063218;28;20039;-31
2022/05/19 11:27:30;;;;;;;6.32;2.75;;;;;;;29.39;31.61;96959.63;5060801;28;20059;-34
2022/05/19 11:29:58;;;;;;;5.70;2.70;;;;;;;29.40;31.53;96968.41;5052699;28;20034;-33
2022/05/19 11:32:29;;;;;;;5.63;2.95;;;;;;;29.41;31.99;96957.72;5053028;28;20128;-30
2022/05/19 11:35:03;;;;;;;4.05;2.40;;;;;;;29.42;31.78;96964.72;5069955;28;20109;-33
2022/05/19 11:37:44;;;;;;;4.60;2.70;;;;;;;29.42;31.59;96959.44;5058628;28;20237;-31
2022/05/19 11:40:18;;;;;;;7.68;2.90;;;;;;;29.44;32.07;96965.47;5054270;28;20025;-30
2022/05/19 11:42:57;;;;;;;5.68;2.70;;;;;;;29.44;31.94;96962.81;5043832;28;20562;-31
2022/05/19 11:45:44;;;;;;;7.32;3.05;;;;;;;29.46;32.12;96962.72;5058855;28;20035;-31
2022/05/19 11:57:30;;;;;;;9.32;2.60;;;;;;;29.51;31.77;96941.28;5062348;28;20039;-35
2022/05/19 11:59:57;;;;;;;5.60;2.50;;;;;;;29.52;32.20;96945.66;5069961;28;20032;-30
2022/05/19 12:02:28;;;;;;;8.02;2.85;;;;;;;29.52;31.79;96950.94;5065586;28;20580;-38
2022/05/19 12:05:12;;;;;;;;;;;;;;;29.53;31.86;96947.34;5065208;28;20403;-32
2022/05/19 12:07:51;;;;;;;5.15;2.70;;;;;;;29.53;31.69;96942.94;5060206;28;19967;-30